Time;durP1;ratioP1;P1;durP2;ratioP2;P2;SDS_P1;SDS_P2;PMS_P1;PMS_P2;Temp;Humidity;BMP_temperature;BMP_pressure;BME280_temperature;BME280_humidity;BME280_pressure;Samples;Min_cycle;Max_cycle;Signal;HPM_P1;HPM_P2
2023/03/01 00:01:06;;;;;;;2.28;1.13;;;;;;;20.97;28.89;103068.56;4981613;28;20060;-80
2023/03/01 00:03:33;;;;;;;1.27;1.10;;;;;;;20.99;28.89;103061.13;4974810;28;20050;-80
2023/03/01 00:06:03;;;;;;;1.27;1.15;;;;;;;20.97;29.09;103064.97;4971680;28;20043;-79
2023/03/01 00:08:32;;;;;;;1.27;1.00;;;;;;;20.97;28.84;103057.63;4971954;28;20497;-80
2023/03/01 00:11:11;;;;;;;1.20;1.10;;;;;;;20.92;29.26;103057.13;4975508;28;20505;-80
2023/03/01 00:13:38;;;;;;;2.00;1.23;;;;;;;20.93;29.28;103056.13;4981372;28;20122;-80
2023/03/01 00:16:08;;;;;;;1.55;1.25;;;;;;;20.91;29.19;103064.47;4983152;28;20047;-81
2023/03/01 00:18:35;;;;;;;1.83;1.30;;;;;;;20.94;29.38;103066.94;4983256;28;20047;-80
2023/03/01 00:21:03;;;;;;;1.10;1.00;;;;;;;20.93;28.89;103065.19;4979295;28;20062;-80
2023/03/01 00:23:30;;;;;;;1.38;1.20;;;;;;;20.93;29.31;103065.19;4984452;28;20145;-81
2023/03/01 00:25:57;;;;;;;1.88;1.50;;;;;;;20.91;29.23;103059.00;4979020;28;20038;-77
2023/03/01 00:28:23;;;;;;;1.25;1.00;;;;;;;20.92;29.31;103052.53;4976909;28;20051;-80
2023/03/01 00:30:50;;;;;;;2.03;1.00;;;;;;;20.89;29.54;103049.19;4956485;28;20142;-79
2023/03/01 00:33:17;;;;;;;1.20;0.88;;;;;;;20.89;29.47;103047.31;4988371;28;20042;-79
2023/03/01 00:35:45;;;;;;;1.73;1.20;;;;;;;20.88;29.16;103047.44;4987981;28;20122;-79
2023/03/01 00:38:12;;;;;;;1.50;1.10;;;;;;;20.86;29.58;103047.56;4980859;28;20046;-78
2023/03/01 00:40:39;;;;;;;1.38;1.02;;;;;;;20.87;29.46;103049.31;4986962;28;20050;-78
2023/03/01 00:43:06;;;;;;;1.65;1.00;;;;;;;20.89;29.07;103047.31;4971148;28;20050;-78
2023/03/01 00:45:33;;;;;;;1.90;1.20;;;;;;;20.88;29.41;103034.66;4987521;28;20046;-77
2023/03/01 00:48:00;;;;;;;1.95;1.20;;;;;;;20.90;29.38;103040.00;4982040;28;20129;-77
2023/03/01 00:50:27;;;;;;;1.17;0.90;;;;;;;20.89;29.34;103041.00;4975675;28;20519;-76
2023/03/01 00:52:54;;;;;;;1.63;1.38;;;;;;;20.86;28.94;103033.03;4972908;28;20042;-76
2023/03/01 00:55:22;;;;;;;1.15;0.98;;;;;;;20.86;28.98;103027.56;4974749;28;20141;-76
2023/03/01 00:57:48;;;;;;;1.20;0.98;;;;;;;20.87;29.21;103032.91;4976512;28;20062;-77
2023/03/01 01:00:15;;;;;;;2.05;1.13;;;;;;;20.86;29.28;103031.19;4971666;28;20043;-77
2023/03/01 01:02:42;;;;;;;1.52;1.27;;;;;;;20.85;29.09;103034.03;4985254;28;20073;-77
2023/03/01 01:05:09;;;;;;;1.77;1.15;;;;;;;20.85;29.24;103036.75;4981348;28;20044;-76
2023/03/01 01:07:35;;;;;;;2.00;1.15;;;;;;;20.82;29.24;103035.16;4974352;28;20766;-76
2023/03/01 01:10:04;;;;;;;1.65;1.10;;;;;;;20.82;28.97;103026.97;4980808;28;20493;-75
2023/03/01 01:12:31;;;;;;;1.95;0.82;;;;;;;20.81;29.36;103025.22;4978969;28;20141;-76
2023/03/01 01:14:58;;;;;;;1.45;1.00;;;;;;;20.77;29.07;103018.22;4979269;28;20058;-75
2023/03/01 01:17:25;;;;;;;1.58;1.00;;;;;;;20.78;29.45;103010.91;4976915;28;20165;-75
2023/03/01 01:19:51;;;;;;;1.02;0.93;;;;;;;20.75;28.96;103008.41;4976766;28;20129;-76
2023/03/01 01:22:18;;;;;;;1.55;1.17;;;;;;;20.72;29.42;102998.63;4968513;28;20505;-74
2023/03/01 01:24:44;;;;;;;2.08;0.90;;;;;;;20.72;29.29;102998.63;4980786;28;20047;-74
2023/03/01 01:27:11;;;;;;;1.60;1.00;;;;;;;20.70;29.02;102994.28;4978131;28;20053;-74
2023/03/01 01:29:38;;;;;;;1.58;1.05;;;;;;;20.70;29.49;102988.81;4974575;28;20057;-75
2023/03/01 01:32:04;;;;;;;1.08;0.85;;;;;;;20.70;29.42;102991.53;4972519;28;20121;-74
2023/03/01 01:34:31;;;;;;;1.02;0.90;;;;;;;20.71;29.20;102988.69;4974164;28;20054;-75
2023/03/01 01:37:02;;;;;;;1.80;1.10;;;;;;;20.71;29.03;102993.28;4975175;28;20130;-75
2023/03/01 01:39:29;;;;;;;1.10;0.90;;;;;;;20.69;29.30;102989.81;4980077;28;20101;-76
2023/03/01 01:41:56;;;;;;;1.10;0.90;;;;;;;20.69;29.12;102984.34;4971821;28;20080;-76
2023/03/01 01:44:26;;;;;;;1.48;1.13;;;;;;;20.65;29.40;102978.25;4972971;28;20069;-75
2023/03/01 01:46:55;;;;;;;1.45;0.90;;;;;;;20.60;29.19;102980.47;4978820;28;20047;-75
2023/03/01 01:49:41;;;;;;;1.73;0.98;;;;;;;20.59;29.46;102973.28;4976427;28;20042;-76
2023/03/01 01:52:20;;;;;;;1.35;1.02;;;;;;;20.55;29.40;102969.94;4976130;28;20043;-75
2023/03/01 01:54:50;;;;;;;1.30;1.10;;;;;;;20.54;29.46;102968.19;4969758;28;20050;-74
2023/03/01 01:57:25;;;;;;;1.10;1.00;;;;;;;20.60;29.25;102966.84;4977487;28;20134;-74
2023/03/01 01:59:53;;;;;;;;;;;;;;;20.57;29.16;102967.09;4987947;28;20083;-74
2023/03/01 02:02:21;;;;;;;1.23;1.10;;;;;;;20.55;29.26;102966.34;4995462;28;21576;-74
2023/03/01 02:04:58;;;;;;;1.30;0.90;;;;;;;20.55;29.31;102966.34;4968182;28;20347;-74
2023/03/01 02:07:26;;;;;;;1.83;1.17;;;;;;;20.52;29.63;102966.56;4982135;28;20104;-74
2023/03/01 02:09:53;;;;;;;1.50;0.90;;;;;;;20.52;29.61;102972.03;4986915;28;20611;-75
2023/03/01 02:12:23;;;;;;;1.23;1.10;;;;;;;20.56;29.37;102968.06;4978041;28;20069;-74
2023/03/01 02:14:50;;;;;;;2.17;0.70;;;;;;;20.51;29.64;102975.75;4988233;28;20416;-76
2023/03/01 02:17:18;;;;;;;1.13;1.00;;;;;;;20.55;29.15;102975.38;4983257;28;20489;-76
2023/03/01 02:19:58;;;;;;;1.67;1.17;;;;;;;20.51;29.59;102973.91;5011531;28;20044;-76
2023/03/01 02:22:29;;;;;;;1.10;1.00;;;;;;;20.47;29.62;102977.88;4997139;28;20509;-76
2023/03/01 02:25:40;;;;;;;1.10;1.00;;;;;;;20.48;29.61;102971.41;4972964;28;20045;-76
2023/03/01 02:28:15;;;;;;;1.42;1.10;;;;;;;20.49;29.72;102966.81;5039513;28;20057;-75
2023/03/01 02:33:32;;;;;;;1.33;1.10;;;;;;;20.57;29.54;102964.34;4978611;28;20050;-75
2023/03/01 02:36:19;;;;;;;1.10;0.80;;;;;;;20.68;29.64;102966.22;4983646;28;20035;-75
2023/03/01 02:38:47;;;;;;;2.03;0.90;;;;;;;20.73;29.51;102961.25;4980882;28;20066;-75
2023/03/01 02:41:16;;;;;;;1.17;1.00;;;;;;;20.72;29.52;102960.38;4978601;28;20042;-74
2023/03/01 02:43:43;;;;;;;1.55;0.90;;;;;;;20.68;29.29;102950.69;4976699;28;20050;-74
2023/03/01 02:46:22;;;;;;;1.05;0.85;;;;;;;20.60;29.44;102954.06;4962358;28;20621;-74
2023/03/01 02:48:54;;;;;;;1.27;0.90;;;;;;;20.57;29.10;102947.97;4979964;28;20042;-74
2023/03/01 02:51:49;;;;;;;1.85;1.10;;;;;;;20.51;29.49;102949.34;4977879;28;20379;-75
2023/03/01 02:54:39;;;;;;;1.83;1.00;;;;;;;20.52;29.43;102947.47;4972673;28;20034;-75
2023/03/01 02:57:07;;;;;;;1.55;1.00;;;;;;;20.44;29.33;102952.69;4986175;28;20042;-75
2023/03/01 02:59:39;;;;;;;1.20;1.00;;;;;;;20.41;29.36;102952.91;4984586;28;20509;-75
2023/03/01 03:02:20;;;;;;;2.67;1.00;;;;;;;20.40;29.55;102962.09;4982878;28;20555;-75
2023/03/01 03:04:46;;;;;;;1.20;1.00;;;;;;;20.37;29.83;102962.31;4966652;28;20140;-74
2023/03/01 03:07:14;;;;;;;1.38;1.00;;;;;;;20.34;29.61;102963.41;4980309;28;20053;-75
2023/03/01 03:09:40;;;;;;;0.95;0.80;;;;;;;20.33;29.73;102958.09;5001701;28;20050;-75
2023/03/01 03:12:07;;;;;;;1.00;0.85;;;;;;;20.38;29.20;102953.13;4989411;28;20042;-75
2023/03/01 03:14:34;;;;;;;1.23;0.90;;;;;;;20.39;29.21;102960.31;4979223;28;20050;-73
2023/03/01 03:17:06;;;;;;;1.50;1.00;;;;;;;20.43;29.60;102953.66;4965371;28;20052;-75
2023/03/01 03:19:32;;;;;;;1.35;1.20;;;;;;;20.42;29.37;102955.53;4975185;28;20058;-75
2023/03/01 03:21:59;;;;;;;1.30;0.82;;;;;;;20.35;29.64;102951.50;4984472;28;20048;-75
2023/03/01 03:24:27;;;;;;;1.27;0.98;;;;;;;20.39;29.71;102960.31;4979598;28;20557;-75
2023/03/01 03:26:53;;;;;;;1.13;0.95;;;;;;;20.33;29.45;102960.81;4981272;28;20133;-75
2023/03/01 03:29:20;;;;;;;1.30;1.05;;;;;;;20.31;29.67;102955.47;4985898;28;20046;-75
2023/03/01 03:31:47;;;;;;;1.50;0.98;;;;;;;20.31;29.56;102953.63;4973259;28;20142;-74
2023/03/01 03:34:17;;;;;;;1.65;0.90;;;;;;;20.32;29.28;102949.03;4987387;28;20066;-75
2023/03/01 03:36:44;;;;;;;1.55;1.10;;;;;;;20.36;29.65;102958.72;4982687;28;20039;-74
2023/03/01 03:39:11;;;;;;;1.67;0.98;;;;;;;20.36;29.50;102952.38;4983775;28;20465;-75
2023/03/01 03:41:37;;;;;;;3.28;1.10;;;;;;;20.27;29.58;102948.53;4978528;28;20038;-75
2023/03/01 03:44:04;;;;;;;1.17;0.95;;;;;;;20.22;29.44;102943.44;4974623;28;20462;-74
2023/03/01 03:46:31;;;;;;;1.23;0.90;;;;;;;20.25;29.62;102945.91;4969170;28;20050;-74
2023/03/01 03:48:58;;;;;;;1.15;0.90;;;;;;;20.34;29.75;102952.50;4973418;28;20485;-75
2023/03/01 03:51:25;;;;;;;1.13;1.00;;;;;;;20.35;29.34;102945.19;4975181;28;20497;-72
2023/03/01 03:53:52;;;;;;;1.52;1.00;;;;;;;20.26;29.52;102944.06;4977817;28;20050;-72
2023/03/01 03:56:18;;;;;;;1.75;1.00;;;;;;;20.33;29.65;102936.25;4982649;28;20424;-72
2023/03/01 03:58:45;;;;;;;1.10;0.90;;;;;;;20.27;29.55;102935.75;4982599;28;20050;-72
2023/03/01 04:01:11;;;;;;;1.08;0.93;;;;;;;20.28;29.53;102936.63;4971699;28;20295;-73
2023/03/01 04:03:38;;;;;;;1.20;1.00;;;;;;;20.24;29.79;102932.41;4981157;28;20054;-75
2023/03/01 04:06:05;;;;;;;0.85;0.80;;;;;;;20.27;29.76;102930.28;4969978;28;20065;-75
2023/03/01 04:08:36;;;;;;;1.67;1.08;;;;;;;20.30;29.68;102934.63;4971302;28;20057;-75
2023/03/01 04:11:25;;;;;;;1.20;1.00;;;;;;;20.28;29.28;102931.16;4968644;28;20054;-75
2023/03/01 04:13:54;;;;;;;1.50;1.10;;;;;;;20.27;29.66;102926.69;4966123;28;20047;-75
2023/03/01 04:16:22;;;;;;;1.38;1.00;;;;;;;20.26;29.45;102924.94;4960578;28;20050;-75
2023/03/01 04:18:48;;;;;;;1.50;1.05;;;;;;;20.31;29.91;102920.88;4978163;28;20092;-74
2023/03/01 04:21:15;;;;;;;1.42;1.10;;;;;;;20.43;29.58;102919.06;4984720;28;20051;-74
2023/03/01 04:23:42;;;;;;;1.33;1.00;;;;;;;20.53;29.69;102919.19;4972043;28;20050;-74
2023/03/01 04:26:09;;;;;;;1.33;0.93;;;;;;;20.57;29.52;102913.34;4971305;28;20077;-74
2023/03/01 04:28:39;;;;;;;1.33;1.00;;;;;;;20.58;29.51;102904.16;4983438;28;20056;-76
2023/03/01 04:31:18;;;;;;;1.77;0.98;;;;;;;20.55;28.96;102909.00;4965227;28;20512;-77
2023/03/01 04:33:53;;;;;;;1.17;0.90;;;;;;;20.47;29.29;102904.16;4976065;28;20393;-76
2023/03/01 04:36:29;;;;;;;1.33;0.90;;;;;;;20.38;29.58;102899.41;4981398;28;20068;-76
2023/03/01 04:38:57;;;;;;;1.60;0.90;;;;;;;20.30;29.28;102902.75;4967854;28;20050;-77
2023/03/01 04:41:25;;;;;;;1.02;0.82;;;;;;;20.21;29.19;102898.03;4982863;28;20049;-76
2023/03/01 04:43:52;;;;;;;1.65;1.13;;;;;;;20.23;29.19;102897.91;4976307;28;20393;-76
2023/03/01 04:46:20;;;;;;;1.42;0.98;;;;;;;20.23;29.38;102897.91;4982122;28;20145;-77
2023/03/01 04:48:47;;;;;;;1.42;0.98;;;;;;;20.30;29.60;102905.50;4972452;28;20077;-77
2023/03/01 04:51:15;;;;;;;1.35;1.00;;;;;;;20.25;29.24;102905.00;4973383;28;20070;-77
2023/03/01 04:53:43;;;;;;;1.42;1.15;;;;;;;20.25;29.61;102904.13;4973044;28;20124;-78
2023/03/01 04:56:09;;;;;;;1.05;0.90;;;;;;;20.21;29.45;102895.31;4978608;28;20511;-78
2023/03/01 04:58:36;;;;;;;1.55;0.90;;;;;;;20.19;29.41;102886.38;4976288;28;20081;-77
2023/03/01 05:01:14;;;;;;;1.67;1.13;;;;;;;20.23;29.49;102892.47;4979167;28;20412;-75
2023/03/01 05:03:49;;;;;;;1.25;1.00;;;;;;;20.21;29.79;102892.59;4973152;28;20066;-76
2023/03/01 05:06:17;;;;;;;1.27;0.90;;;;;;;20.26;29.50;102884.03;4972937;28;20054;-76
2023/03/01 05:08:44;;;;;;;1.80;1.30;;;;;;;20.28;29.38;102890.22;4975210;28;20127;-76
2023/03/01 05:11:11;;;;;;;1.90;1.10;;;;;;;20.26;29.33;102889.47;4968458;28;20054;-76
2023/03/01 05:13:39;;;;;;;1.20;1.10;;;;;;;20.23;29.65;102882.41;4965766;28;20061;-78
2023/03/01 05:16:10;;;;;;;1.23;1.00;;;;;;;20.17;29.70;102882.03;4977697;28;20043;-79
2023/03/01 05:18:39;;;;;;;1.30;1.13;;;;;;;20.11;29.60;102883.38;4968193;28;20058;-78
2023/03/01 05:21:11;;;;;;;1.65;1.00;;;;;;;20.11;29.60;102872.47;4967753;28;20038;-78
2023/03/01 05:23:38;;;;;;;1.52;1.10;;;;;;;20.07;29.64;102870.13;4965604;28;20130;-79
2023/03/01 05:26:06;;;;;;;1.70;1.20;;;;;;;20.06;29.55;102871.06;4979097;28;20441;-78
2023/03/01 05:28:41;;;;;;;1.45;1.20;;;;;;;20.02;29.45;102867.72;4977460;28;20121;-78
2023/03/01 05:31:09;;;;;;;1.45;1.00;;;;;;;20.11;29.88;102863.44;4980450;28;20050;-78
2023/03/01 05:33:37;;;;;;;1.65;1.00;;;;;;;20.13;29.69;102856.84;4977303;28;20075;-79
2023/03/01 05:36:05;;;;;;;1.02;0.90;;;;;;;20.19;29.60;102850.03;4983228;28;20053;-78
2023/03/01 05:38:32;;;;;;;1.52;1.15;;;;;;;20.14;29.74;102855.00;4975960;28;20096;-78
2023/03/01 05:40:59;;;;;;;1.25;0.90;;;;;;;20.18;29.51;102845.56;4981441;28;20043;-78
2023/03/01 05:43:26;;;;;;;1.00;0.90;;;;;;;20.13;29.40;102845.06;4980375;28;20534;-78
2023/03/01 05:45:52;;;;;;;1.10;1.00;;;;;;;20.08;29.55;102853.63;4978125;28;20042;-79
2023/03/01 05:48:19;;;;;;;1.02;0.80;;;;;;;20.11;29.63;102847.94;4976880;28;20047;-79
2023/03/01 05:50:47;;;;;;;1.20;0.98;;;;;;;20.20;29.54;102846.31;4974320;28;20066;-75
2023/03/01 05:53:20;;;;;;;1.10;0.90;;;;;;;20.30;29.54;102850.03;4969501;28;20046;-75
2023/03/01 05:55:48;;;;;;;2.13;1.15;;;;;;;20.36;29.36;102848.69;4965238;28;20038;-76
2023/03/01 05:58:18;;;;;;;1.25;1.02;;;;;;;20.42;29.39;102849.09;4968446;28;20063;-76
2023/03/01 06:00:47;;;;;;;1.35;1.10;;;;;;;20.47;29.10;102857.75;4990677;28;20055;-82
2023/03/01 06:03:16;;;;;;;1.52;1.08;;;;;;;20.46;29.24;102857.88;4974588;28;20038;-82
2023/03/01 06:05:43;;;;;;;1.25;1.10;;;;;;;20.33;29.04;102857.13;4967796;28;20125;-82
2023/03/01 06:08:11;;;;;;;1.80;0.80;;;;;;;20.23;28.94;102855.13;4972790;28;20072;-81
2023/03/01 06:10:38;;;;;;;1.98;1.20;;;;;;;20.17;29.53;102858.34;4951789;28;20474;-81
2023/03/01 06:13:05;;;;;;;1.60;1.20;;;;;;;20.12;29.54;102857.84;4961718;28;20085;-81
2023/03/01 06:15:32;;;;;;;1.85;1.17;;;;;;;20.08;29.27;102850.91;4989529;28;20046;-76
2023/03/01 06:17:59;;;;;;;1.13;0.90;;;;;;;20.12;29.59;102856.97;4978277;28;20047;-80
2023/03/01 06:20:27;;;;;;;1.95;1.23;;;;;;;20.09;29.48;102858.09;4971009;28;20082;-79
2023/03/01 06:22:54;;;;;;;1.20;1.00;;;;;;;20.05;29.22;102859.28;4976964;28;20073;-77
2023/03/01 06:25:23;;;;;;;1.40;1.20;;;;;;;19.96;29.27;102862.75;4977269;28;20042;-78
2023/03/01 06:27:51;;;;;;;1.83;1.25;;;;;;;19.94;29.36;102862.88;4972665;28;20046;-79
2023/03/01 06:30:21;;;;;;;2.33;1.15;;;;;;;19.93;29.29;102861.13;4967561;28;20066;-68
2023/03/01 06:32:48;;;;;;;1.58;1.33;;;;;;;20.02;29.32;102856.81;4972152;28;20044;-68
2023/03/01 06:35:19;;;;;;;1.85;1.30;;;;;;;20.03;29.33;102849.50;4979488;28;20086;-68
2023/03/01 06:37:47;;;;;;;1.83;1.20;;;;;;;20.05;29.17;102853.84;4977710;28;20071;-69
2023/03/01 06:40:15;;;;;;;2.03;1.33;;;;;;;20.10;29.85;102857.09;4963671;28;20050;-68
2023/03/01 06:42:47;;;;;;;1.52;1.15;;;;;;;20.26;29.49;102852.16;4974057;28;20038;-68
2023/03/01 06:45:14;;;;;;;1.45;1.30;;;;;;;20.35;29.57;102855.13;4959625;28;20051;-68
2023/03/01 06:47:40;;;;;;;1.80;1.27;;;;;;;20.42;29.59;102850.94;4964232;28;20067;-68
2023/03/01 06:50:08;;;;;;;6.38;1.38;;;;;;;20.39;30.20;102846.59;4965742;28;20103;-69
2023/03/01 06:52:35;;;;;;;1.38;1.10;;;;;;;20.43;29.80;102842.63;4982379;28;20517;-69
2023/03/01 06:55:02;;;;;;;1.27;1.10;;;;;;;20.46;29.87;102853.31;4978376;28;20144;-68
2023/03/01 06:57:28;;;;;;;1.70;1.30;;;;;;;20.49;29.89;102847.59;4991729;28;20055;-68
2023/03/01 06:59:55;;;;;;;3.83;1.20;;;;;;;20.47;29.78;102848.72;4975156;28;20125;-68
2023/03/01 07:02:22;;;;;;;1.75;1.35;;;;;;;20.35;29.20;102847.81;4971449;28;20467;-67
2023/03/01 07:04:52;;;;;;;2.08;1.40;;;;;;;20.38;29.08;102842.09;4979872;28;20129;-67
2023/03/01 07:07:19;;;;;;;1.70;1.20;;;;;;;20.30;29.43;102842.72;4966818;28;20043;-69
2023/03/01 07:09:48;;;;;;;2.17;1.45;;;;;;;20.29;29.71;102840.13;4979755;28;20128;-69
2023/03/01 07:12:14;;;;;;;1.70;1.40;;;;;;;20.29;29.55;102851.03;4972806;28;20054;-70
2023/03/01 07:14:43;;;;;;;1.48;1.20;;;;;;;20.28;29.29;102841.13;4967758;28;20414;-75
2023/03/01 07:17:10;;;;;;;4.53;1.52;;;;;;;20.28;29.71;102847.44;4968730;28;20365;-69
2023/03/01 07:19:36;;;;;;;2.03;1.50;;;;;;;20.20;29.76;102849.06;4976807;28;20050;-69
2023/03/01 07:22:04;;;;;;;2.33;1.20;;;;;;;20.24;30.18;102854.13;4970059;28;20050;-69
2023/03/01 07:24:30;;;;;;;1.20;1.10;;;;;;;20.36;30.15;102862.31;4974362;28;20452;-69
2023/03/01 07:26:57;;;;;;;2.35;1.40;;;;;;;20.44;30.32;102860.75;4980609;28;20039;-69
2023/03/01 07:29:23;;;;;;;2.67;1.40;;;;;;;20.50;30.03;102862.97;4971946;28;20068;-69
2023/03/01 07:31:50;;;;;;;1.63;1.00;;;;;;;20.55;29.94;102876.25;4982315;28;20061;-76
2023/03/01 07:34:17;;;;;;;4.72;2.22;;;;;;;20.15;30.10;102870.38;4973463;28;20401;-81
2023/03/01 07:36:46;;;;;;;4.50;2.15;;;;;;;20.21;29.44;102861.69;4966446;28;20074;-82
2023/03/01 07:39:12;;;;;;;2.80;1.55;;;;;;;20.33;29.67;102862.56;4983688;28;20054;-83
2023/03/01 07:41:40;;;;;;;1.75;1.30;;;;;;;20.42;29.80;102861.88;4974895;28;20047;-82
2023/03/01 07:44:07;;;;;;;1.52;1.33;;;;;;;20.30;29.63;102856.38;4962654;28;20051;-83
2023/03/01 07:46:33;;;;;;;2.65;1.70;;;;;;;20.19;29.40;102856.38;4971539;28;20042;-82
2023/03/01 07:49:00;;;;;;;1.75;1.30;;;;;;;20.26;29.60;102857.59;4972224;28;20039;-81
2023/03/01 07:51:26;;;;;;;3.15;1.58;;;;;;;20.20;29.69;102862.69;4987615;28;20056;-81
2023/03/01 07:53:55;;;;;;;1.92;1.40;;;;;;;20.18;30.00;102868.28;4991177;28;20046;-81
2023/03/01 07:56:22;;;;;;;3.50;1.58;;;;;;;20.16;29.82;102864.78;4975907;28;20065;-82
2023/03/01 07:58:49;;;;;;;3.60;1.60;;;;;;;20.04;30.00;102871.19;4973015;28;20046;-80
2023/03/01 08:01:19;;;;;;;3.92;1.33;;;;;;;19.88;29.51;102867.94;4999716;28;20044;-80
2023/03/01 08:03:48;;;;;;;3.13;1.50;;;;;;;19.90;29.85;102869.56;4983910;28;20092;-82
2023/03/01 08:06:16;;;;;;;3.53;1.25;;;;;;;19.91;29.81;102859.53;4976569;28;20497;-79
2023/03/01 08:08:44;;;;;;;2.05;1.50;;;;;;;19.87;30.71;102868.94;4968287;28;20401;-83
2023/03/01 08:11:14;;;;;;;2.30;1.60;;;;;;;19.90;30.01;102869.56;4985214;28;20133;-82
2023/03/01 08:13:42;;;;;;;1.95;1.45;;;;;;;19.81;29.76;102867.56;4977790;28;20047;-81
2023/03/01 08:16:17;;;;;;;2.05;1.52;;;;;;;19.75;30.18;102868.03;4972838;28;20045;-81
2023/03/01 08:18:43;;;;;;;1.90;1.20;;;;;;;19.72;29.93;102867.41;4971422;28;20121;-82
2023/03/01 08:21:13;;;;;;;2.75;1.50;;;;;;;19.73;30.19;102859.09;4973918;28;20049;-82
2023/03/01 08:23:41;;;;;;;4.55;1.58;;;;;;;19.75;30.09;102859.84;4971517;28;20129;-82
2023/03/01 08:26:19;;;;;;;2.28;1.55;;;;;;;19.79;30.16;102857.75;4971663;28;20412;-82
2023/03/01 08:28:47;;;;;;;2.55;1.25;;;;;;;19.79;30.29;102857.75;4972624;28;20571;-82
2023/03/01 08:31:20;;;;;;;2.05;1.50;;;;;;;19.77;30.26;102859.75;4972243;28;20145;-82
2023/03/01 08:33:50;;;;;;;2.03;1.48;;;;;;;19.77;30.48;102859.75;4982215;28;20054;-82
2023/03/01 08:36:18;;;;;;;1.90;1.48;;;;;;;19.78;30.15;102861.47;5000833;28;20441;-82
2023/03/01 08:38:45;;;;;;;2.92;1.52;;;;;;;19.77;30.07;102854.28;4982940;28;20123;-82
2023/03/01 08:41:12;;;;;;;1.85;1.23;;;;;;;19.79;30.12;102846.84;4970914;28;20051;-82
2023/03/01 08:43:41;;;;;;;1.83;1.30;;;;;;;19.82;30.32;102841.16;4975794;28;20429;-81
2023/03/01 08:46:08;;;;;;;1.33;1.10;;;;;;;19.82;29.90;102832.97;4987531;28;20491;-82
2023/03/01 08:48:35;;;;;;;2.35;1.40;;;;;;;19.90;30.45;102842.28;4970520;28;20485;-81
2023/03/01 08:51:15;;;;;;;1.90;1.30;;;;;;;20.09;30.68;102828.09;4971888;28;20485;-82
2023/03/01 08:53:43;;;;;;;1.75;1.10;;;;;;;20.30;30.28;102830.94;5000218;28;20438;-81
2023/03/01 08:56:10;;;;;;;2.00;1.30;;;;;;;20.25;29.87;102830.44;4971132;28;20046;-81
2023/03/01 08:58:39;;;;;;;1.60;1.30;;;;;;;20.09;30.08;102833.53;4978792;28;20037;-82
2023/03/01 09:01:10;;;;;;;2.00;1.30;;;;;;;20.03;30.21;102831.28;5006611;28;20051;-81
2023/03/01 09:03:37;;;;;;;2.08;1.38;;;;;;;19.98;29.86;102833.50;4970376;28;20050;-81
2023/03/01 09:06:14;;;;;;;1.92;1.40;;;;;;;19.94;29.75;102838.31;4970307;28;20051;-82
2023/03/01 09:08:43;;;;;;;2.03;1.15;;;;;;;19.90;30.19;102833.25;4968017;28;20047;-82
2023/03/01 09:11:15;;;;;;;1.42;1.13;;;;;;;19.88;30.05;102833.34;4975177;28;20133;-82
2023/03/01 09:13:41;;;;;;;1.48;1.17;;;;;;;19.89;30.21;102832.38;5005721;28;20054;-82
2023/03/01 09:16:22;;;;;;;1.50;1.30;;;;;;;19.89;29.87;102834.22;4971241;28;20039;-82
2023/03/01 09:18:51;;;;;;;3.83;1.15;;;;;;;19.88;30.57;102827.03;4958617;28;20039;-82
2023/03/01 09:21:23;;;;;;;1.48;1.10;;;;;;;19.92;30.43;102825.81;4965463;28;20050;-82
2023/03/01 09:24:12;;;;;;;1.77;1.13;;;;;;;19.94;30.46;102823.81;4989240;28;20048;-82
2023/03/01 09:26:39;;;;;;;2.47;1.30;;;;;;;19.95;30.36;102811.94;5025488;28;20039;-81
2023/03/01 09:29:09;;;;;;;2.25;1.23;;;;;;;19.97;30.28;102820.84;4973105;28;20057;-82
2023/03/01 09:31:36;;;;;;;1.17;0.95;;;;;;;19.98;30.29;102811.69;4971248;28;20133;-81
2023/03/01 09:34:04;;;;;;;1.35;1.10;;;;;;;19.99;30.55;102810.69;4965375;28;20047;-82
2023/03/01 09:36:31;;;;;;;1.50;0.90;;;;;;;20.03;30.24;102806.72;4952193;28;20108;-82
2023/03/01 09:39:01;;;;;;;1.73;1.00;;;;;;;20.05;30.08;102809.31;4971216;28;20112;-82
2023/03/01 09:41:51;;;;;;;1.80;1.20;;;;;;;20.09;30.48;102811.72;5038694;28;20070;-82
2023/03/01 09:44:31;;;;;;;2.60;1.20;;;;;;;20.14;30.09;102808.63;4969919;28;20051;-82
2023/03/01 09:46:59;;;;;;;1.17;0.90;;;;;;;20.21;30.13;102802.53;4971337;28;20082;-82
2023/03/01 09:49:30;;;;;;;1.63;0.98;;;;;;;20.28;30.06;102795.59;4959288;28;20049;-82
2023/03/01 09:54:51;;;;;;;1.70;1.10;;;;;;;20.43;30.27;102787.19;4971266;28;20521;-82
2023/03/01 09:57:53;;;;;;;1.42;0.90;;;;;;;20.50;30.34;102789.28;4970241;28;20078;-82
2023/03/01 10:00:30;;;;;;;1.75;1.10;;;;;;;20.65;30.23;102780.81;4983869;28;20085;-82
2023/03/01 10:03:26;;;;;;;3.53;1.00;;;;;;;20.76;30.26;102781.66;5032627;28;20126;-82
2023/03/01 10:06:00;;;;;;;0.95;0.82;;;;;;;20.91;29.91;102768.59;4971468;28;20077;-82
2023/03/01 10:08:38;;;;;;;1.48;0.90;;;;;;;21.06;29.88;102766.44;5006127;28;20053;-82
2023/03/01 10:11:29;;;;;;;1.23;0.95;;;;;;;21.20;29.66;102768.84;4980726;28;20061;-82
2023/03/01 10:14:02;;;;;;;1.05;0.90;;;;;;;21.26;29.87;102762.88;4973957;28;20061;-82
2023/03/01 10:16:38;;;;;;;1.08;0.90;;;;;;;21.34;29.78;102760.34;4971635;28;20051;-82
2023/03/01 10:19:13;;;;;;;1.10;1.00;;;;;;;21.46;29.38;102753.81;4971823;28;20393;-82
2023/03/01 10:21:44;;;;;;;;;;;;;;;21.42;28.98;102748.75;4971108;28;20100;-69
2023/03/01 10:24:18;;;;;;;2.55;1.33;;;;;;;21.52;30.19;102749.69;4968835;28;20376;-80
2023/03/01 10:26:52;;;;;;;4.23;1.30;;;;;;;21.61;30.53;102734.38;4970620;28;20058;-78
2023/03/01 10:29:24;;;;;;;2.05;1.10;;;;;;;21.66;30.59;102738.44;4960557;28;20122;-79
2023/03/01 10:31:52;;;;;;;1.80;1.00;;;;;;;21.75;30.08;102734.88;4972339;28;20066;-74
2023/03/01 10:34:21;;;;;;;1.73;1.00;;;;;;;21.83;29.81;102731.47;4971206;28;20042;-80
2023/03/01 10:36:50;;;;;;;1.75;1.10;;;;;;;21.90;29.75;102729.91;4971988;28;20070;-81
2023/03/01 10:39:20;;;;;;;1.27;1.15;;;;;;;21.86;29.86;102736.66;4973388;28;20061;-78
2023/03/01 10:42:19;;;;;;;1.63;1.15;;;;;;;21.81;29.42;102730.72;4967895;28;20130;-78
2023/03/01 10:44:48;;;;;;;2.40;1.30;;;;;;;21.72;29.04;102728.81;4958455;28;20047;-81
2023/03/01 10:47:16;;;;;;;1.80;1.20;;;;;;;21.78;29.51;102726.41;4973428;28;20039;-80
2023/03/01 10:49:58;;;;;;;2.65;1.00;;;;;;;21.88;29.31;102720.97;4964404;28;20045;-80
2023/03/01 10:52:35;;;;;;;1.73;1.20;;;;;;;21.99;29.50;102725.47;4974542;28;20065;-80
2023/03/01 10:55:26;;;;;;;2.90;1.02;;;;;;;22.11;29.18;102721.66;4969316;28;20125;-80
2023/03/01 10:58:14;;;;;;;1.65;1.08;;;;;;;22.19;28.95;102725.44;4968301;28;20482;-80
2023/03/01 11:00:52;;;;;;;1.60;1.15;;;;;;;22.26;28.92;102730.34;4990469;28;20051;-80
2023/03/01 11:03:23;;;;;;;1.73;1.20;;;;;;;22.29;28.69;102720.00;4966329;28;20081;-81
2023/03/01 11:06:06;;;;;;;1.25;0.95;;;;;;;22.37;28.86;102725.66;4965621;28;20107;-80
2023/03/01 11:08:36;;;;;;;1.90;0.77;;;;;;;22.48;28.79;102716.47;4965499;28;20054;-80
2023/03/01 11:11:09;;;;;;;1.63;1.00;;;;;;;22.56;28.77;102729.44;4966751;28;20081;-80
2023/03/01 11:13:38;;;;;;;1.45;1.15;;;;;;;22.64;28.28;102726.88;4964899;28;20051;-80
2023/03/01 11:16:10;;;;;;;3.25;0.88;;;;;;;22.70;28.43;102718.94;4968899;28;20158;-80
2023/03/01 11:18:39;;;;;;;3.47;0.98;;;;;;;22.76;28.06;102722.97;4982527;28;20057;-80
2023/03/01 11:21:15;;;;;;;1.90;1.00;;;;;;;22.85;28.04;102718.56;4978767;28;20171;-80
2023/03/01 11:23:46;;;;;;;1.67;1.00;;;;;;;22.92;28.01;102717.81;4967406;28;20081;-80
2023/03/01 11:26:15;;;;;;;1.63;1.10;;;;;;;22.80;27.98;102705.28;4975966;28;20081;-80
2023/03/01 11:28:48;;;;;;;3.55;1.10;;;;;;;22.91;27.77;102709.75;5002949;28;20135;-80
2023/03/01 11:31:16;;;;;;;2.03;1.00;;;;;;;22.96;28.01;102705.56;4985789;28;20590;-74
2023/03/01 11:33:58;;;;;;;1.75;1.15;;;;;;;23.12;27.72;102707.75;4970008;28;20047;-75
2023/03/01 11:36:48;;;;;;;1.77;1.00;;;;;;;23.18;27.88;102700.81;4974408;28;20042;-75
2023/03/01 11:39:31;;;;;;;2.65;1.20;;;;;;;23.36;27.91;102699.06;4974898;28;20074;-75
2023/03/01 11:42:15;;;;;;;1.23;0.98;;;;;;;23.48;27.83;102700.59;4965523;28;20067;-75
2023/03/01 11:44:48;;;;;;;2.33;1.15;;;;;;;23.54;27.37;102693.66;4974420;28;20046;-75
2023/03/01 11:47:40;;;;;;;1.77;1.00;;;;;;;23.69;27.27;102700.44;4970985;28;20042;-75